sensor_id;sensor_type;location;lat;lon;timestamp;temperature;humidity
68439;SHT31;55421;51.600;5.718;2022-09-09T00:04:11;16.52;77.60
68439;SHT31;55421;51.600;5.718;2022-09-09T00:06:59;16.56;77.51
68439;SHT31;55421;51.600;5.718;2022-09-09T00:09:39;16.53;77.30
68439;SHT31;55421;51.600;5.718;2022-09-09T00:12:20;16.50;77.40
68439;SHT31;55421;51.600;5.718;2022-09-09T00:15:02;16.48;77.42
68439;SHT31;55421;51.600;5.718;2022-09-09T00:17:43;16.43;77.34
68439;SHT31;55421;51.600;5.718;2022-09-09T00:31:38;16.52;77.60
68439;SHT31;55421;51.600;5.718;2022-09-09T00:34:09;16.54;77.50
68439;SHT31;55421;51.600;5.718;2022-09-09T00:36:43;16.55;77.47
68439;SHT31;55421;51.600;5.718;2022-09-09T00:39:46;16.57;77.46
68439;SHT31;55421;51.600;5.718;2022-09-09T00:42:23;16.58;77.47
68439;SHT31;55421;51.600;5.718;2022-09-09T00:48:01;16.48;77.44
68439;SHT31;55421;51.600;5.718;2022-09-09T00:50:41;16.40;77.60
68439;SHT31;55421;51.600;5.718;2022-09-09T00:53:27;16.38;77.76
68439;SHT31;55421;51.600;5.718;2022-09-09T00:56:20;16.38;77.78
68439;SHT31;55421;51.600;5.718;2022-09-09T00:59:00;16.39;77.87
68439;SHT31;55421;51.600;5.718;2022-09-09T01:01:38;16.41;77.80
68439;SHT31;55421;51.600;5.718;2022-09-09T01:04:08;16.41;77.71
68439;SHT31;55421;51.600;5.718;2022-09-09T01:06:42;16.39;77.70
68439;SHT31;55421;51.600;5.718;2022-09-09T01:12:16;16.36;77.76
68439;SHT31;55421;51.600;5.718;2022-09-09T01:15:09;16.37;77.74
68439;SHT31;55421;51.600;5.718;2022-09-09T01:17:50;16.38;77.71
68439;SHT31;55421;51.600;5.718;2022-09-09T01:20:29;16.34;77.70
68439;SHT31;55421;51.600;5.718;2022-09-09T01:23:27;16.30;77.70
68439;SHT31;55421;51.600;5.718;2022-09-09T01:26:41;16.22;77.78
68439;SHT31;55421;51.600;5.718;2022-09-09T01:29:17;16.16;77.98
68439;SHT31;55421;51.600;5.718;2022-09-09T01:31:57;16.14;78.04
68439;SHT31;55421;51.600;5.718;2022-09-09T01:34:48;16.08;78.17
68439;SHT31;55421;51.600;5.718;2022-09-09T01:37:16;16.04;78.33
68439;SHT31;55421;51.600;5.718;2022-09-09T01:39:43;16.02;78.49
68439;SHT31;55421;51.600;5.718;2022-09-09T01:42:12;15.98;78.58
68439;SHT31;55421;51.600;5.718;2022-09-09T01:44:42;15.95;78.73
68439;SHT31;55421;51.600;5.718;2022-09-09T01:47:08;15.96;78.93
68439;SHT31;55421;51.600;5.718;2022-09-09T01:49:35;15.97;79.02
68439;SHT31;55421;51.600;5.718;2022-09-09T01:52:02;15.91;79.20
68439;SHT31;55421;51.600;5.718;2022-09-09T01:54:29;15.86;79.40
68439;SHT31;55421;51.600;5.718;2022-09-09T02:00:12;15.86;79.68
68439;SHT31;55421;51.600;5.718;2022-09-09T02:05:44;15.93;79.69
68439;SHT31;55421;51.600;5.718;2022-09-09T02:08:21;15.94;79.70
68439;SHT31;55421;51.600;5.718;2022-09-09T02:13:48;15.94;79.76
68439;SHT31;55421;51.600;5.718;2022-09-09T02:22:01;15.89;79.84
68439;SHT31;55421;51.600;5.718;2022-09-09T02:24:30;15.91;79.95
68439;SHT31;55421;51.600;5.718;2022-09-09T02:27:03;15.93;79.86
68439;SHT31;55421;51.600;5.718;2022-09-09T02:29:36;15.92;79.87
68439;SHT31;55421;51.600;5.718;2022-09-09T02:32:14;15.93;79.88
68439;SHT31;55421;51.600;5.718;2022-09-09T02:34:49;15.95;79.85
68439;SHT31;55421;51.600;5.718;2022-09-09T02:37:24;15.99;79.79
68439;SHT31;55421;51.600;5.718;2022-09-09T02:39:58;16.01;79.80
68439;SHT31;55421;51.600;5.718;2022-09-09T02:42:24;15.98;79.71
68439;SHT31;55421;51.600;5.718;2022-09-09T02:44:50;15.96;79.86
68439;SHT31;55421;51.600;5.718;2022-09-09T02:50:24;15.90;79.85
68439;SHT31;55421;51.600;5.718;2022-09-09T02:52:58;15.89;79.95
68439;SHT31;55421;51.600;5.718;2022-09-09T02:56:05;15.90;80.01
68439;SHT31;55421;51.600;5.718;2022-09-09T02:58:41;15.94;80.01
68439;SHT31;55421;51.600;5.718;2022-09-09T03:01:08;15.93;80.00
68439;SHT31;55421;51.600;5.718;2022-09-09T03:03:35;15.88;80.06
68439;SHT31;55421;51.600;5.718;2022-09-09T03:06:02;15.85;80.21
68439;SHT31;55421;51.600;5.718;2022-09-09T03:08:28;15.87;80.20
68439;SHT31;55421;51.600;5.718;2022-09-09T03:10:55;15.84;80.23
68439;SHT31;55421;51.600;5.718;2022-09-09T03:13:24;15.81;80.40
68439;SHT31;55421;51.600;5.718;2022-09-09T03:15:51;15.84;80.47
68439;SHT31;55421;51.600;5.718;2022-09-09T03:18:17;15.86;80.35
68439;SHT31;55421;51.600;5.718;2022-09-09T03:20:45;15.84;80.30
68439;SHT31;55421;51.600;5.718;2022-09-09T03:23:16;15.80;80.35
68439;SHT31;55421;51.600;5.718;2022-09-09T03:25:47;15.76;80.50
68439;SHT31;55421;51.600;5.718;2022-09-09T03:28:15;15.76;80.67
68439;SHT31;55421;51.600;5.718;2022-09-09T03:30:41;15.82;80.78
68439;SHT31;55421;51.600;5.718;2022-09-09T03:33:08;15.88;80.70
68439;SHT31;55421;51.600;5.718;2022-09-09T03:35:34;15.92;80.62
68439;SHT31;55421;51.600;5.718;2022-09-09T03:38:01;15.94;80.60
68439;SHT31;55421;51.600;5.718;2022-09-09T03:40:28;15.94;80.52
68439;SHT31;55421;51.600;5.718;2022-09-09T03:42:54;15.94;80.56
68439;SHT31;55421;51.600;5.718;2022-09-09T03:45:20;15.97;80.60
68439;SHT31;55421;51.600;5.718;2022-09-09T03:47:47;15.98;80.56
68439;SHT31;55421;51.600;5.718;2022-09-09T03:50:13;15.97;80.52
68439;SHT31;55421;51.600;5.718;2022-09-09T03:52:40;15.97;80.60
68439;SHT31;55421;51.600;5.718;2022-09-09T03:55:08;15.98;80.69
68439;SHT31;55421;51.600;5.718;2022-09-09T03:57:35;15.97;80.71
68439;SHT31;55421;51.600;5.718;2022-09-09T04:00:05;15.97;80.81
68439;SHT31;55421;51.600;5.718;2022-09-09T04:02:33;15.97;80.89
68439;SHT31;55421;51.600;5.718;2022-09-09T04:05:00;15.98;80.99
68439;SHT31;55421;51.600;5.718;2022-09-09T04:07:27;16.00;80.99
68439;SHT31;55421;51.600;5.718;2022-09-09T04:09:54;16.04;81.02
68439;SHT31;55421;51.600;5.718;2022-09-09T04:12:20;16.10;81.00
68439;SHT31;55421;51.600;5.718;2022-09-09T04:14:48;16.15;81.00
68439;SHT31;55421;51.600;5.718;2022-09-09T04:17:15;16.18;81.00
68439;SHT31;55421;51.600;5.718;2022-09-09T04:19:42;16.19;81.06
68439;SHT31;55421;51.600;5.718;2022-09-09T04:22:08;16.19;81.16
68439;SHT31;55421;51.600;5.718;2022-09-09T04:24:35;16.19;81.16
68439;SHT31;55421;51.600;5.718;2022-09-09T04:27:02;16.19;81.24
68439;SHT31;55421;51.600;5.718;2022-09-09T04:29:28;16.22;81.30
68439;SHT31;55421;51.600;5.718;2022-09-09T04:31:55;16.25;81.29
68439;SHT31;55421;51.600;5.718;2022-09-09T04:34:21;16.27;81.31
68439;SHT31;55421;51.600;5.718;2022-09-09T04:36:48;16.29;81.32
68439;SHT31;55421;51.600;5.718;2022-09-09T04:39:14;16.30;81.32
68439;SHT31;55421;51.600;5.718;2022-09-09T04:41:40;16.30;81.30
68439;SHT31;55421;51.600;5.718;2022-09-09T04:44:07;16.28;81.30
68439;SHT31;55421;51.600;5.718;2022-09-09T04:46:33;16.28;81.32
68439;SHT31;55421;51.600;5.718;2022-09-09T04:49:03;16.29;81.40
68439;SHT31;55421;51.600;5.718;2022-09-09T04:51:29;16.26;81.39
68439;SHT31;55421;51.600;5.718;2022-09-09T04:53:57;16.23;81.47
68439;SHT31;55421;51.600;5.718;2022-09-09T04:56:24;16.23;81.50
68439;SHT31;55421;51.600;5.718;2022-09-09T04:58:52;16.23;81.56
68439;SHT31;55421;51.600;5.718;2022-09-09T05:01:19;16.23;81.55
68439;SHT31;55421;51.600;5.718;2022-09-09T05:03:49;16.23;81.57
68439;SHT31;55421;51.600;5.718;2022-09-09T05:06:18;16.22;81.57
68439;SHT31;55421;51.600;5.718;2022-09-09T05:08:47;16.18;81.67
68439;SHT31;55421;51.600;5.718;2022-09-09T05:11:16;16.17;81.73
68439;SHT31;55421;51.600;5.718;2022-09-09T05:13:49;16.16;81.79
68439;SHT31;55421;51.600;5.718;2022-09-09T05:16:18;16.16;81.84
68439;SHT31;55421;51.600;5.718;2022-09-09T05:18:46;16.16;81.82
68439;SHT31;55421;51.600;5.718;2022-09-09T05:21:14;16.15;81.83
68439;SHT31;55421;51.600;5.718;2022-09-09T05:23:47;16.11;81.91
68439;SHT31;55421;51.600;5.718;2022-09-09T05:26:18;16.11;81.99
68439;SHT31;55421;51.600;5.718;2022-09-09T05:28:47;16.14;82.01
68439;SHT31;55421;51.600;5.718;2022-09-09T05:31:14;16.18;82.03
68439;SHT31;55421;51.600;5.718;2022-09-09T05:33:44;16.24;82.00
68439;SHT31;55421;51.600;5.718;2022-09-09T05:36:15;16.28;81.92
68439;SHT31;55421;51.600;5.718;2022-09-09T05:38:44;16.28;81.86
68439;SHT31;55421;51.600;5.718;2022-09-09T05:41:11;16.28;81.84
68439;SHT31;55421;51.600;5.718;2022-09-09T05:43:41;16.29;81.90
68439;SHT31;55421;51.600;5.718;2022-09-09T05:46:11;16.32;81.88
68439;SHT31;55421;51.600;5.718;2022-09-09T05:48:41;16.35;81.82
68439;SHT31;55421;51.600;5.718;2022-09-09T05:51:13;16.36;81.71
68439;SHT31;55421;51.600;5.718;2022-09-09T05:53:44;16.34;81.70
68439;SHT31;55421;51.600;5.718;2022-09-09T05:56:15;16.32;81.68
68439;SHT31;55421;51.600;5.718;2022-09-09T05:59:05;16.31;81.69
68439;SHT31;55421;51.600;5.718;2022-09-09T06:01:33;16.32;81.69
68439;SHT31;55421;51.600;5.718;2022-09-09T06:04:02;16.33;81.73
68439;SHT31;55421;51.600;5.718;2022-09-09T06:06:30;16.33;81.76
68439;SHT31;55421;51.600;5.718;2022-09-09T06:09:02;16.34;81.93
68439;SHT31;55421;51.600;5.718;2022-09-09T06:11:39;16.37;81.99
68439;SHT31;55421;51.600;5.718;2022-09-09T06:14:06;16.43;82.00
68439;SHT31;55421;51.600;5.718;2022-09-09T06:16:34;16.50;81.97
68439;SHT31;55421;51.600;5.718;2022-09-09T06:19:03;16.58;81.96
68439;SHT31;55421;51.600;5.718;2022-09-09T06:21:30;16.66;81.79
68439;SHT31;55421;51.600;5.718;2022-09-09T06:24:00;16.68;81.69
68439;SHT31;55421;51.600;5.718;2022-09-09T06:26:28;16.68;81.60
68439;SHT31;55421;51.600;5.718;2022-09-09T06:29:07;16.69;81.64
68439;SHT31;55421;51.600;5.718;2022-09-09T06:31:35;16.72;81.64
68439;SHT31;55421;51.600;5.718;2022-09-09T06:34:06;16.76;81.57
68439;SHT31;55421;51.600;5.718;2022-09-09T06:36:35;16.82;81.56
68439;SHT31;55421;51.600;5.718;2022-09-09T06:39:04;16.87;81.54
68439;SHT31;55421;51.600;5.718;2022-09-09T06:41:33;16.92;81.41
68439;SHT31;55421;51.600;5.718;2022-09-09T06:43:59;16.97;81.27
68439;SHT31;55421;51.600;5.718;2022-09-09T06:46:27;17.04;81.28
68439;SHT31;55421;51.600;5.718;2022-09-09T06:48:58;17.08;81.00
68439;SHT31;55421;51.600;5.718;2022-09-09T06:51:27;17.09;80.97
68439;SHT31;55421;51.600;5.718;2022-09-09T06:54:00;17.10;80.90
68439;SHT31;55421;51.600;5.718;2022-09-09T06:56:29;17.13;80.67
68439;SHT31;55421;51.600;5.718;2022-09-09T06:59:03;17.17;80.64
68439;SHT31;55421;51.600;5.718;2022-09-09T07:01:32;17.22;80.61
68439;SHT31;55421;51.600;5.718;2022-09-09T07:04:01;17.27;80.37
68439;SHT31;55421;51.600;5.718;2022-09-09T07:06:31;17.25;80.19
68439;SHT31;55421;51.600;5.718;2022-09-09T07:09:04;17.23;80.24
68439;SHT31;55421;51.600;5.718;2022-09-09T07:11:37;17.25;80.18
68439;SHT31;55421;51.600;5.718;2022-09-09T07:14:09;17.33;80.12
68439;SHT31;55421;51.600;5.718;2022-09-09T07:16:43;17.43;80.09
68439;SHT31;55421;51.600;5.718;2022-09-09T07:19:12;17.53;80.00
68439;SHT31;55421;51.600;5.718;2022-09-09T07:21:40;17.61;79.75
68439;SHT31;55421;51.600;5.718;2022-09-09T07:24:07;17.63;79.47
68439;SHT31;55421;51.600;5.718;2022-09-09T07:26:36;17.66;79.43
68439;SHT31;55421;51.600;5.718;2022-09-09T07:29:05;17.65;79.24
68439;SHT31;55421;51.600;5.718;2022-09-09T07:31:33;17.63;78.97
68439;SHT31;55421;51.600;5.718;2022-09-09T07:34:03;17.68;78.90
68439;SHT31;55421;51.600;5.718;2022-09-09T07:36:32;17.76;78.77
68439;SHT31;55421;51.600;5.718;2022-09-09T07:39:03;17.86;78.71
68439;SHT31;55421;51.600;5.718;2022-09-09T07:44:06;17.99;77.81
68439;SHT31;55421;51.600;5.718;2022-09-09T07:46:37;18.04;77.61
68439;SHT31;55421;51.600;5.718;2022-09-09T07:49:05;18.05;77.07
68439;SHT31;55421;51.600;5.718;2022-09-09T07:51:32;18.08;77.03
68439;SHT31;55421;51.600;5.718;2022-09-09T07:54:03;18.17;77.06
68439;SHT31;55421;51.600;5.718;2022-09-09T07:56:35;18.26;76.78
68439;SHT31;55421;51.600;5.718;2022-09-09T07:59:03;18.27;76.36
68439;SHT31;55421;51.600;5.718;2022-09-09T08:01:36;18.27;76.52
68439;SHT31;55421;51.600;5.718;2022-09-09T08:04:07;18.29;76.58
68439;SHT31;55421;51.600;5.718;2022-09-09T08:06:42;18.30;76.39
68439;SHT31;55421;51.600;5.718;2022-09-09T08:09:13;18.29;76.28
68439;SHT31;55421;51.600;5.718;2022-09-09T08:11:41;18.27;75.91
68439;SHT31;55421;51.600;5.718;2022-09-09T08:14:09;18.23;75.47
68439;SHT31;55421;51.600;5.718;2022-09-09T08:16:39;18.22;75.42
68439;SHT31;55421;51.600;5.718;2022-09-09T08:19:10;18.23;75.64
68439;SHT31;55421;51.600;5.718;2022-09-09T08:21:38;18.26;75.59
68439;SHT31;55421;51.600;5.718;2022-09-09T08:24:06;18.30;75.27
68439;SHT31;55421;51.600;5.718;2022-09-09T08:26:35;18.34;75.25
68439;SHT31;55421;51.600;5.718;2022-09-09T08:29:10;18.36;74.78
68439;SHT31;55421;51.600;5.718;2022-09-09T08:31:40;18.39;74.89
68439;SHT31;55421;51.600;5.718;2022-09-09T08:34:13;18.44;74.62
68439;SHT31;55421;51.600;5.718;2022-09-09T08:36:41;18.48;74.46
68439;SHT31;55421;51.600;5.718;2022-09-09T08:39:13;18.53;74.30
68439;SHT31;55421;51.600;5.718;2022-09-09T08:41:49;18.56;74.28
68439;SHT31;55421;51.600;5.718;2022-09-09T08:47:50;18.68;74.19
68439;SHT31;55421;51.600;5.718;2022-09-09T08:50:36;18.74;73.92
68439;SHT31;55421;51.600;5.718;2022-09-09T08:56:02;18.80;73.41
68439;SHT31;55421;51.600;5.718;2022-09-09T08:58:47;18.80;73.40
68439;SHT31;55421;51.600;5.718;2022-09-09T09:07:33;18.85;73.02
68439;SHT31;55421;51.600;5.718;2022-09-09T09:10:48;18.89;72.83
68439;SHT31;55421;51.600;5.718;2022-09-09T09:13:18;18.88;72.86
68439;SHT31;55421;51.600;5.718;2022-09-09T09:15:55;18.89;73.02
68439;SHT31;55421;51.600;5.718;2022-09-09T09:18:28;18.88;72.99
68439;SHT31;55421;51.600;5.718;2022-09-09T09:20:58;18.87;72.83
68439;SHT31;55421;51.600;5.718;2022-09-09T09:23:50;18.82;72.70
68439;SHT31;55421;51.600;5.718;2022-09-09T09:26:35;18.73;72.72
68439;SHT31;55421;51.600;5.718;2022-09-09T09:29:12;18.67;72.80
68439;SHT31;55421;51.600;5.718;2022-09-09T09:31:43;18.63;72.90
68439;SHT31;55421;51.600;5.718;2022-09-09T09:34:17;18.58;72.91
68439;SHT31;55421;51.600;5.718;2022-09-09T09:36:45;18.55;73.13
68439;SHT31;55421;51.600;5.718;2022-09-09T09:39:27;18.56;73.13
68439;SHT31;55421;51.600;5.718;2022-09-09T09:41:56;18.61;72.94
68439;SHT31;55421;51.600;5.718;2022-09-09T09:44:27;18.67;72.87
68439;SHT31;55421;51.600;5.718;2022-09-09T09:47:11;18.73;73.09
68439;SHT31;55421;51.600;5.718;2022-09-09T09:49:59;18.78;73.16
68439;SHT31;55421;51.600;5.718;2022-09-09T09:52:27;18.80;72.79
68439;SHT31;55421;51.600;5.718;2022-09-09T09:54:57;18.78;72.61
68439;SHT31;55421;51.600;5.718;2022-09-09T09:57:26;18.77;72.60
68439;SHT31;55421;51.600;5.718;2022-09-09T10:00:00;18.76;72.65
68439;SHT31;55421;51.600;5.718;2022-09-09T10:02:41;18.76;72.53
68439;SHT31;55421;51.600;5.718;2022-09-09T10:07:47;18.76;72.25
68439;SHT31;55421;51.600;5.718;2022-09-09T10:10:42;18.80;72.42
68439;SHT31;55421;51.600;5.718;2022-09-09T10:13:14;18.87;72.29
68439;SHT31;55421;51.600;5.718;2022-09-09T10:19:20;19.03;72.04
68439;SHT31;55421;51.600;5.718;2022-09-09T10:34:58;19.10;71.94
68439;SHT31;55421;51.600;5.718;2022-09-09T10:37:43;18.99;72.17
68439;SHT31;55421;51.600;5.718;2022-09-09T10:46:55;18.86;72.21
68439;SHT31;55421;51.600;5.718;2022-09-09T10:49:52;18.78;72.71
68439;SHT31;55421;51.600;5.718;2022-09-09T10:55:45;18.59;74.22
68439;SHT31;55421;51.600;5.718;2022-09-09T10:58:26;18.50;74.82
68439;SHT31;55421;51.600;5.718;2022-09-09T11:01:02;18.43;75.30
68439;SHT31;55421;51.600;5.718;2022-09-09T11:03:42;18.36;75.46
68439;SHT31;55421;51.600;5.718;2022-09-09T11:06:18;18.29;75.80
68439;SHT31;55421;51.600;5.718;2022-09-09T11:08:51;18.24;76.14
68439;SHT31;55421;51.600;5.718;2022-09-09T11:11:37;18.21;76.40
68439;SHT31;55421;51.600;5.718;2022-09-09T11:17:20;18.21;76.87
68439;SHT31;55421;51.600;5.718;2022-09-09T11:19:54;18.21;77.15
68439;SHT31;55421;51.600;5.718;2022-09-09T11:22:28;18.29;77.52
68439;SHT31;55421;51.600;5.718;2022-09-09T11:37:01;18.72;77.59
68439;SHT31;55421;51.600;5.718;2022-09-09T11:42:49;19.09;77.55
68439;SHT31;55421;51.600;5.718;2022-09-09T11:45:39;19.33;77.34
68439;SHT31;55421;51.600;5.718;2022-09-09T11:53:48;19.70;75.79
68439;SHT31;55421;51.600;5.718;2022-09-09T11:56:26;19.74;75.26
68439;SHT31;55421;51.600;5.718;2022-09-09T12:01:35;19.60;74.87
68439;SHT31;55421;51.600;5.718;2022-09-09T12:06:46;19.44;74.89
68439;SHT31;55421;51.600;5.718;2022-09-09T12:09:26;19.36;74.86
68439;SHT31;55421;51.600;5.718;2022-09-09T12:12:06;19.28;74.87
68439;SHT31;55421;51.600;5.718;2022-09-09T12:14:56;19.22;75.13
68439;SHT31;55421;51.600;5.718;2022-09-09T12:17:28;19.17;75.24
68439;SHT31;55421;51.600;5.718;2022-09-09T12:20:11;19.14;75.43
68439;SHT31;55421;51.600;5.718;2022-09-09T12:22:51;19.16;75.59
68439;SHT31;55421;51.600;5.718;2022-09-09T12:25:48;19.24;75.71
68439;SHT31;55421;51.600;5.718;2022-09-09T12:28:33;19.32;75.58
68439;SHT31;55421;51.600;5.718;2022-09-09T12:37:32;19.66;75.14
68439;SHT31;55421;51.600;5.718;2022-09-09T12:40:21;19.76;74.89
68439;SHT31;55421;51.600;5.718;2022-09-09T12:42:51;19.81;74.02
68439;SHT31;55421;51.600;5.718;2022-09-09T12:45:39;19.80;73.69
68439;SHT31;55421;51.600;5.718;2022-09-09T12:48:07;19.80;73.88
68439;SHT31;55421;51.600;5.718;2022-09-09T12:50:46;19.78;73.79
68439;SHT31;55421;51.600;5.718;2022-09-09T12:53:21;19.76;73.72
68439;SHT31;55421;51.600;5.718;2022-09-09T12:55:54;19.78;73.72
68439;SHT31;55421;51.600;5.718;2022-09-09T12:58:25;19.82;73.37
68439;SHT31;55421;51.600;5.718;2022-09-09T13:00:54;19.81;73.05
68439;SHT31;55421;51.600;5.718;2022-09-09T13:03:25;19.80;73.03
68439;SHT31;55421;51.600;5.718;2022-09-09T13:05:53;19.74;72.95
68439;SHT31;55421;51.600;5.718;2022-09-09T13:08:26;19.73;73.29
68439;SHT31;55421;51.600;5.718;2022-09-09T13:10:54;19.72;73.30
68439;SHT31;55421;51.600;5.718;2022-09-09T13:13:30;19.72;73.13
68439;SHT31;55421;51.600;5.718;2022-09-09T13:16:04;19.71;72.93
68439;SHT31;55421;51.600;5.718;2022-09-09T13:18:44;19.69;72.77
68439;SHT31;55421;51.600;5.718;2022-09-09T13:21:10;19.65;72.97
68439;SHT31;55421;51.600;5.718;2022-09-09T13:23:37;19.60;73.10
68439;SHT31;55421;51.600;5.718;2022-09-09T13:26:05;19.57;73.25
68439;SHT31;55421;51.600;5.718;2022-09-09T13:28:47;19.52;73.55
68439;SHT31;55421;51.600;5.718;2022-09-09T13:31:27;19.45;73.70
68439;SHT31;55421;51.600;5.718;2022-09-09T13:33:58;19.36;74.01
68439;SHT31;55421;51.600;5.718;2022-09-09T13:36:33;19.30;74.31
68439;SHT31;55421;51.600;5.718;2022-09-09T13:39:02;19.25;74.51
68439;SHT31;55421;51.600;5.718;2022-09-09T13:41:32;19.23;74.73
68439;SHT31;55421;51.600;5.718;2022-09-09T13:44:00;19.21;75.18
68439;SHT31;55421;51.600;5.718;2022-09-09T13:46:39;19.17;75.38
68439;SHT31;55421;51.600;5.718;2022-09-09T13:51:40;19.05;75.88
68439;SHT31;55421;51.600;5.718;2022-09-09T13:54:11;19.09;76.04
68439;SHT31;55421;51.600;5.718;2022-09-09T13:56:40;19.13;76.05
68439;SHT31;55421;51.600;5.718;2022-09-09T13:59:12;19.19;76.09
68439;SHT31;55421;51.600;5.718;2022-09-09T14:01:46;19.24;75.83
68439;SHT31;55421;51.600;5.718;2022-09-09T14:04:13;19.30;75.77
68439;SHT31;55421;51.600;5.718;2022-09-09T14:06:41;19.41;75.79
68439;SHT31;55421;51.600;5.718;2022-09-09T14:09:10;19.54;75.45
68439;SHT31;55421;51.600;5.718;2022-09-09T14:11:41;19.62;74.68
68439;SHT31;55421;51.600;5.718;2022-09-09T14:14:08;19.73;74.49
68439;SHT31;55421;51.600;5.718;2022-09-09T14:16:35;19.88;74.49
68439;SHT31;55421;51.600;5.718;2022-09-09T14:19:02;19.98;74.45
68439;SHT31;55421;51.600;5.718;2022-09-09T14:21:29;20.04;74.29
68439;SHT31;55421;51.600;5.718;2022-09-09T14:23:55;20.10;74.14
68439;SHT31;55421;51.600;5.718;2022-09-09T14:26:24;20.17;73.67
68439;SHT31;55421;51.600;5.718;2022-09-09T14:28:51;20.24;73.56
68439;SHT31;55421;51.600;5.718;2022-09-09T14:31:18;20.32;73.60
68439;SHT31;55421;51.600;5.718;2022-09-09T14:33:45;20.39;73.47
68439;SHT31;55421;51.600;5.718;2022-09-09T14:36:12;20.43;73.35
68439;SHT31;55421;51.600;5.718;2022-09-09T14:38:38;20.45;73.22
68439;SHT31;55421;51.600;5.718;2022-09-09T14:41:06;20.44;72.99
68439;SHT31;55421;51.600;5.718;2022-09-09T14:43:35;20.46;72.97
68439;SHT31;55421;51.600;5.718;2022-09-09T14:46:05;20.53;73.15
68439;SHT31;55421;51.600;5.718;2022-09-09T14:48:37;20.62;72.68
68439;SHT31;55421;51.600;5.718;2022-09-09T14:51:07;20.68;72.35
68439;SHT31;55421;51.600;5.718;2022-09-09T14:53:35;20.70;72.16
68439;SHT31;55421;51.600;5.718;2022-09-09T14:56:04;20.71;71.89
68439;SHT31;55421;51.600;5.718;2022-09-09T14:58:32;20.71;71.91
68439;SHT31;55421;51.600;5.718;2022-09-09T15:01:03;20.66;71.31
68439;SHT31;55421;51.600;5.718;2022-09-09T15:03:33;20.59;71.26
68439;SHT31;55421;51.600;5.718;2022-09-09T15:06:04;20.52;71.34
68439;SHT31;55421;51.600;5.718;2022-09-09T15:08:37;20.48;71.44
68439;SHT31;55421;51.600;5.718;2022-09-09T15:11:07;20.43;71.42
68439;SHT31;55421;51.600;5.718;2022-09-09T15:13:34;20.38;71.43
68439;SHT31;55421;51.600;5.718;2022-09-09T15:16:06;20.33;71.40
68439;SHT31;55421;51.600;5.718;2022-09-09T15:18:34;20.29;71.49
68439;SHT31;55421;51.600;5.718;2022-09-09T15:21:05;20.27;71.68
68439;SHT31;55421;51.600;5.718;2022-09-09T15:23:32;20.25;71.88
68439;SHT31;55421;51.600;5.718;2022-09-09T15:25:59;20.22;71.53
68439;SHT31;55421;51.600;5.718;2022-09-09T15:28:27;20.20;71.57
68439;SHT31;55421;51.600;5.718;2022-09-09T15:30:54;20.21;71.45
68439;SHT31;55421;51.600;5.718;2022-09-09T15:33:22;20.22;71.38
68439;SHT31;55421;51.600;5.718;2022-09-09T15:35:49;20.20;71.39
68439;SHT31;55421;51.600;5.718;2022-09-09T15:38:16;20.17;71.06
68439;SHT31;55421;51.600;5.718;2022-09-09T15:40:43;20.13;70.97
68439;SHT31;55421;51.600;5.718;2022-09-09T15:43:12;20.09;70.79
68439;SHT31;55421;51.600;5.718;2022-09-09T15:45:39;20.02;70.74
68439;SHT31;55421;51.600;5.718;2022-09-09T15:48:05;19.93;70.14
68439;SHT31;55421;51.600;5.718;2022-09-09T15:50:32;19.71;70.37
68439;SHT31;55421;51.600;5.718;2022-09-09T15:52:58;19.42;70.54
68439;SHT31;55421;51.600;5.718;2022-09-09T15:55:25;19.14;70.85
68439;SHT31;55421;51.600;5.718;2022-09-09T15:57:52;18.87;71.31
68439;SHT31;55421;51.600;5.718;2022-09-09T16:00:19;18.65;71.83
68439;SHT31;55421;51.600;5.718;2022-09-09T16:02:46;18.49;72.30
68439;SHT31;55421;51.600;5.718;2022-09-09T16:05:13;18.36;72.81
68439;SHT31;55421;51.600;5.718;2022-09-09T16:07:40;18.26;73.24
68439;SHT31;55421;51.600;5.718;2022-09-09T16:10:08;18.19;73.97
68439;SHT31;55421;51.600;5.718;2022-09-09T16:12:36;18.16;74.46
68439;SHT31;55421;51.600;5.718;2022-09-09T16:15:03;18.07;74.54
68439;SHT31;55421;51.600;5.718;2022-09-09T16:17:30;17.99;74.66
68439;SHT31;55421;51.600;5.718;2022-09-09T16:19:56;17.98;74.97
68439;SHT31;55421;51.600;5.718;2022-09-09T16:22:23;18.04;75.21
68439;SHT31;55421;51.600;5.718;2022-09-09T16:24:50;18.10;75.39
68439;SHT31;55421;51.600;5.718;2022-09-09T16:27:16;18.13;75.49
68439;SHT31;55421;51.600;5.718;2022-09-09T16:29:43;18.17;75.78
68439;SHT31;55421;51.600;5.718;2022-09-09T16:32:09;18.19;76.02
68439;SHT31;55421;51.600;5.718;2022-09-09T16:34:37;18.16;75.76
68439;SHT31;55421;51.600;5.718;2022-09-09T16:37:03;18.08;75.87
68439;SHT31;55421;51.600;5.718;2022-09-09T16:39:30;18.04;76.15
68439;SHT31;55421;51.600;5.718;2022-09-09T16:41:56;18.03;76.39
68439;SHT31;55421;51.600;5.718;2022-09-09T16:44:23;18.06;76.42
68439;SHT31;55421;51.600;5.718;2022-09-09T16:46:52;18.08;76.45
68439;SHT31;55421;51.600;5.718;2022-09-09T16:49:18;18.06;76.31
68439;SHT31;55421;51.600;5.718;2022-09-09T16:51:46;18.02;76.50
68439;SHT31;55421;51.600;5.718;2022-09-09T16:54:16;18.01;76.66
68439;SHT31;55421;51.600;5.718;2022-09-09T16:56:44;18.00;76.69
68439;SHT31;55421;51.600;5.718;2022-09-09T16:59:14;17.98;76.81
68439;SHT31;55421;51.600;5.718;2022-09-09T17:01:46;17.96;76.94
68439;SHT31;55421;51.600;5.718;2022-09-09T17:04:17;17.95;77.13
68439;SHT31;55421;51.600;5.718;2022-09-09T17:06:48;17.95;77.31
68439;SHT31;55421;51.600;5.718;2022-09-09T17:09:16;17.97;77.44
68439;SHT31;55421;51.600;5.718;2022-09-09T17:11:45;17.97;77.59
68439;SHT31;55421;51.600;5.718;2022-09-09T17:14:15;17.93;77.70
68439;SHT31;55421;51.600;5.718;2022-09-09T17:16:44;17.87;77.83
68439;SHT31;55421;51.600;5.718;2022-09-09T17:19:11;17.82;77.81
68439;SHT31;55421;51.600;5.718;2022-09-09T17:21:39;17.78;77.80
68439;SHT31;55421;51.600;5.718;2022-09-09T17:24:06;17.74;77.68
68439;SHT31;55421;51.600;5.718;2022-09-09T17:26:33;17.72;77.86
68439;SHT31;55421;51.600;5.718;2022-09-09T17:29:00;17.69;77.97
68439;SHT31;55421;51.600;5.718;2022-09-09T17:31:29;17.63;78.12
68439;SHT31;55421;51.600;5.718;2022-09-09T17:33:57;17.60;78.28
68439;SHT31;55421;51.600;5.718;2022-09-09T17:36:26;17.62;78.35
68439;SHT31;55421;51.600;5.718;2022-09-09T17:38:59;17.66;78.28
68439;SHT31;55421;51.600;5.718;2022-09-09T17:41:28;17.77;78.35
68439;SHT31;55421;51.600;5.718;2022-09-09T17:44:00;17.80;78.25
68439;SHT31;55421;51.600;5.718;2022-09-09T17:46:28;17.82;78.20
68439;SHT31;55421;51.600;5.718;2022-09-09T17:49:10;17.83;78.05
68439;SHT31;55421;51.600;5.718;2022-09-09T17:51:40;17.81;77.96
68439;SHT31;55421;51.600;5.718;2022-09-09T17:54:09;17.77;77.91
68439;SHT31;55421;51.600;5.718;2022-09-09T17:56:40;17.74;77.82
68439;SHT31;55421;51.600;5.718;2022-09-09T17:59:08;17.71;77.97